Newell, Pennsylvania
Current Conditions -  °F | °C
As of 3:53 PM on Tuesday 27 Jan 2015 (Local Time) from KAGC Reporting Station
Haze Haze  
Wind Chill: 12°   Ceiling: 2800
Heat Index: 21°   Visibility: 4mi
Dew Point: 13°   Wind: 7mph
Humidity: 71%   Direction: 330°NNW
Pressure: 29.96"   Gusts: NA
Location:  40.08°N, 79.9°W
Report Text: KAGC 272053Z 33006KT 4SM HZ SCT020 OVC028 M06/M11 A2996 RMK AO2 SNB01E37 SLP168 P0000 60000 T10611106 53016
Loading
Personal Weather Stations






























Interactive Weather Map New forecast layout! Learn more

10-Day Weather Forecast

Advertisements
Track Severe Weather on mobile